createdAt,value
2023-01-06T00:01:36.514Z,9.21
2023-01-06T00:04:05.582Z,9.35
2023-01-06T00:06:34.614Z,9.43
2023-01-06T00:09:06.223Z,9.47
2023-01-06T00:11:35.739Z,9.44
2023-01-06T00:14:04.175Z,9.43
2023-01-06T00:16:33.282Z,9.38
2023-01-06T00:19:02.302Z,9.36
2023-01-06T00:21:30.880Z,9.30
2023-01-06T00:23:59.258Z,9.27
2023-01-06T00:26:27.484Z,9.26
2023-01-06T00:28:59.012Z,9.23
2023-01-06T00:31:27.702Z,9.22
2023-01-06T00:33:57.696Z,9.18
2023-01-06T00:36:26.642Z,9.21
2023-01-06T00:38:54.764Z,9.25
2023-01-06T00:41:40.782Z,9.29
2023-01-06T00:44:10.323Z,9.41
2023-01-06T00:46:39.405Z,9.44
2023-01-06T00:49:08.076Z,9.75
2023-01-06T00:51:37.710Z,9.84
2023-01-06T00:54:06.100Z,9.77
2023-01-06T00:56:36.776Z,9.87
2023-01-06T00:59:05.586Z,9.78
2023-01-06T01:01:36.011Z,9.74
2023-01-06T01:04:04.599Z,9.70
2023-01-06T01:06:33.418Z,9.77
2023-01-06T01:09:02.672Z,9.74
2023-01-06T01:11:49.201Z,9.84
2023-01-06T01:14:18.908Z,9.83
2023-01-06T01:16:48.654Z,9.93
2023-01-06T01:19:18.031Z,9.99
2023-01-06T01:21:46.289Z,10.07
2023-01-06T01:24:14.410Z,9.94
2023-01-06T01:26:42.768Z,10.07
2023-01-06T01:29:13.434Z,10.08
2023-01-06T01:31:41.830Z,10.03
2023-01-06T01:34:12.767Z,10.09
2023-01-06T01:36:42.046Z,10.20
2023-01-06T01:39:10.978Z,10.22
2023-01-06T01:41:39.547Z,10.25
2023-01-06T01:44:40.827Z,10.23
2023-01-06T01:47:09.825Z,10.26
2023-01-06T01:49:42.293Z,10.34
2023-01-06T01:52:12.082Z,10.38
2023-01-06T01:54:41.630Z,10.37
2023-01-06T01:57:13.605Z,10.38
2023-01-06T01:59:43.959Z,10.40
2023-01-06T02:02:15.862Z,10.38
2023-01-06T02:04:50.281Z,10.40
2023-01-06T02:07:19.343Z,10.37
2023-01-06T02:09:57.019Z,10.38
2023-01-06T02:12:25.200Z,10.37
2023-01-06T02:14:54.145Z,10.39
2023-01-06T02:17:43.269Z,10.43
2023-01-06T02:20:53.202Z,10.52
2023-01-06T02:23:51.538Z,10.59
2023-01-06T02:26:52.701Z,10.70
2023-01-06T02:29:44.443Z,10.78
2023-01-06T02:32:31.714Z,10.86
2023-01-06T02:35:14.753Z,10.85
2023-01-06T02:37:57.059Z,10.96
2023-01-06T02:40:42.550Z,10.97
2023-01-06T02:43:16.988Z,10.96
2023-01-06T02:45:56.203Z,10.99
2023-01-06T02:48:37.537Z,11.04
2023-01-06T02:51:10.815Z,11.08
2023-01-06T02:53:50.311Z,11.09
2023-01-06T02:56:23.211Z,11.18
2023-01-06T02:58:57.294Z,11.29
2023-01-06T03:01:30.043Z,11.34
2023-01-06T03:04:03.632Z,11.38
2023-01-06T03:06:35.365Z,11.48
2023-01-06T03:09:06.384Z,11.52
2023-01-06T03:11:36.151Z,11.54
2023-01-06T03:14:11.472Z,11.58
2023-01-06T03:16:39.548Z,11.58
2023-01-06T03:19:09.272Z,11.55
2023-01-06T03:21:41.648Z,11.54
2023-01-06T03:24:11.918Z,11.52
2023-01-06T03:26:40.669Z,11.48
2023-01-06T03:29:11.960Z,11.40
2023-01-06T03:31:48.976Z,11.37
2023-01-06T03:34:27.796Z,11.32
2023-01-06T03:37:06.280Z,11.30
2023-01-06T03:39:42.771Z,11.28
2023-01-06T03:42:44.230Z,11.23
2023-01-06T03:45:25.745Z,11.20
2023-01-06T03:47:57.565Z,11.14
2023-01-06T03:50:34.068Z,11.03
2023-01-06T03:53:14.571Z,11.03
2023-01-06T03:55:48.102Z,11.03
2023-01-06T03:58:18.448Z,10.99
2023-01-06T04:00:47.121Z,10.98
2023-01-06T04:03:16.122Z,10.98
2023-01-06T04:05:45.606Z,10.97
2023-01-06T04:08:13.668Z,10.95
2023-01-06T04:10:41.834Z,10.89
2023-01-06T04:13:08.929Z,10.86
2023-01-06T04:15:37.022Z,10.83
2023-01-06T04:18:05.175Z,10.78
2023-01-06T04:20:33.336Z,10.82
2023-01-06T04:23:02.829Z,10.87
2023-01-06T04:25:30.848Z,10.89
2023-01-06T04:27:58.911Z,10.84
2023-01-06T04:30:27.438Z,10.82
2023-01-06T04:32:55.637Z,10.82
2023-01-06T04:35:23.677Z,10.85
2023-01-06T04:37:51.697Z,10.83
2023-01-06T04:40:21.201Z,10.80
2023-01-06T04:43:07.756Z,10.77
2023-01-06T04:45:36.851Z,10.74
2023-01-06T04:48:05.379Z,10.69
2023-01-06T04:50:33.512Z,10.68
2023-01-06T04:53:01.677Z,10.68
2023-01-06T04:55:31.419Z,10.66
2023-01-06T04:57:59.782Z,10.69
2023-01-06T05:00:27.882Z,10.82
2023-01-06T05:02:55.950Z,10.85
2023-01-06T05:05:24.389Z,10.88
2023-01-06T05:07:55.272Z,10.84
2023-01-06T05:10:23.520Z,10.76
2023-01-06T05:12:53.223Z,10.70
2023-01-06T05:15:21.448Z,10.64
2023-01-06T05:17:49.578Z,10.56
2023-01-06T05:20:17.793Z,10.51
2023-01-06T05:22:46.154Z,10.45
2023-01-06T05:25:14.219Z,10.41
2023-01-06T05:27:42.713Z,10.42
2023-01-06T05:30:13.957Z,10.41
2023-01-06T05:32:42.042Z,10.40
2023-01-06T05:35:11.060Z,10.40
2023-01-06T05:37:39.167Z,10.43
2023-01-06T05:40:08.599Z,10.44
2023-01-06T05:42:36.672Z,10.43
2023-01-06T05:45:05.206Z,10.43
2023-01-06T05:47:34.732Z,10.42
2023-01-06T05:50:03.460Z,10.39
2023-01-06T05:52:31.538Z,10.44
2023-01-06T05:54:59.684Z,10.51
2023-01-06T05:57:27.820Z,10.53
2023-01-06T05:59:55.983Z,10.58
2023-01-06T06:02:24.136Z,10.59
2023-01-06T06:04:53.711Z,10.59
2023-01-06T06:07:21.838Z,10.49
2023-01-06T06:09:49.938Z,10.47
2023-01-06T06:12:18.068Z,10.42
2023-01-06T06:14:46.242Z,10.31
2023-01-06T06:17:14.385Z,10.24
2023-01-06T06:19:42.668Z,10.19
2023-01-06T06:22:12.750Z,10.17
2023-01-06T06:24:40.935Z,10.09
2023-01-06T06:27:09.348Z,10.11
2023-01-06T06:29:37.472Z,10.11
2023-01-06T06:32:05.720Z,10.11
2023-01-06T06:34:33.854Z,10.13
2023-01-06T06:37:02.083Z,10.12
2023-01-06T06:39:31.706Z,10.00
2023-01-06T06:41:59.791Z,10.08
2023-01-06T06:44:28.059Z,10.12
2023-01-06T06:46:56.184Z,10.22
2023-01-06T06:49:24.216Z,10.23
2023-01-06T06:51:53.804Z,10.26
2023-01-06T06:54:22.935Z,10.22
2023-01-06T06:56:52.764Z,10.24
2023-01-06T06:59:21.008Z,10.40
2023-01-06T07:01:49.303Z,10.42
2023-01-06T07:04:17.561Z,10.49
2023-01-06T07:06:45.850Z,10.55
2023-01-06T07:09:13.978Z,10.68
2023-01-06T07:11:42.309Z,10.71
2023-01-06T07:14:12.041Z,10.75
2023-01-06T07:16:40.528Z,10.82
2023-01-06T07:19:09.993Z,10.88
2023-01-06T07:21:39.037Z,10.97
2023-01-06T07:24:07.555Z,11.03
2023-01-06T07:26:35.657Z,11.06
2023-01-06T07:29:03.830Z,11.14
2023-01-06T07:31:33.478Z,11.18
2023-01-06T07:34:01.608Z,11.22
2023-01-06T07:36:29.947Z,11.27
2023-01-06T07:38:58.164Z,11.31
2023-01-06T07:41:26.298Z,11.37
2023-01-06T07:43:54.362Z,11.37
2023-01-06T07:46:22.575Z,11.45
2023-01-06T07:48:52.529Z,11.45
2023-01-06T07:51:20.689Z,11.52
2023-01-06T07:53:48.966Z,11.54
2023-01-06T07:56:17.210Z,11.63
2023-01-06T07:58:45.616Z,11.65
2023-01-06T08:01:14.123Z,11.67
2023-01-06T08:03:42.175Z,11.70
2023-01-06T08:06:14.135Z,11.73
2023-01-06T08:08:43.866Z,11.80
2023-01-06T08:11:14.147Z,11.89
2023-01-06T08:13:42.242Z,11.90
2023-01-06T08:16:12.031Z,12.01
2023-01-06T08:18:41.061Z,12.07
2023-01-06T08:21:12.875Z,12.09
2023-01-06T08:23:41.097Z,12.16
2023-01-06T08:26:11.267Z,12.24
2023-01-06T08:28:39.468Z,12.30
2023-01-06T08:31:11.777Z,12.34
2023-01-06T08:33:40.052Z,12.38
2023-01-06T08:36:10.021Z,12.53
2023-01-06T08:38:39.585Z,12.56
2023-01-06T08:41:08.026Z,12.61
2023-01-06T08:43:36.656Z,12.64
2023-01-06T08:46:07.483Z,12.70
2023-01-06T08:48:36.469Z,12.72
2023-01-06T08:51:05.625Z,12.80
2023-01-06T08:53:34.397Z,12.80
2023-01-06T08:56:04.272Z,12.83
2023-01-06T08:58:32.941Z,12.78
2023-01-06T09:01:01.140Z,12.80
2023-01-06T09:03:29.336Z,12.82
2023-01-06T09:05:59.007Z,12.91
2023-01-06T09:08:27.321Z,12.94
2023-01-06T09:10:55.531Z,12.94
2023-01-06T09:13:25.060Z,13.02
2023-01-06T09:15:54.912Z,13.08
2023-01-06T09:18:23.220Z,13.06
2023-01-06T09:20:51.431Z,13.07
2023-01-06T09:23:21.063Z,13.20
2023-01-06T09:25:49.163Z,13.25
2023-01-06T09:28:17.429Z,13.28
2023-01-06T09:30:49.763Z,13.25
2023-01-06T09:33:18.407Z,13.26
2023-01-06T09:35:47.042Z,13.31
2023-01-06T09:38:16.100Z,13.43
2023-01-06T09:40:57.668Z,13.42
2023-01-06T09:43:35.973Z,13.36
2023-01-06T09:46:07.616Z,13.39
2023-01-06T09:48:42.703Z,13.41
2023-01-06T09:51:19.765Z,13.41
2023-01-06T09:53:54.148Z,13.50
2023-01-06T09:56:25.820Z,13.59
2023-01-06T09:59:00.764Z,13.61
2023-01-06T10:01:35.010Z,13.57
2023-01-06T10:04:03.354Z,13.60
2023-01-06T10:06:35.029Z,13.64
2023-01-06T10:09:13.667Z,13.68
2023-01-06T10:11:54.914Z,13.63
2023-01-06T10:14:38.699Z,13.65
2023-01-06T10:17:28.131Z,13.72
2023-01-06T10:20:07.889Z,13.89
2023-01-06T10:22:48.040Z,13.93
2023-01-06T10:25:24.782Z,13.91
2023-01-06T10:27:57.439Z,13.89
2023-01-06T10:30:33.467Z,13.96
2023-01-06T10:33:03.777Z,14.03
2023-01-06T10:35:33.519Z,13.94
2023-01-06T10:38:08.292Z,13.93
2023-01-06T10:40:37.185Z,13.96
2023-01-06T10:43:07.885Z,14.03
2023-01-06T10:45:40.439Z,13.99
2023-01-06T10:48:14.275Z,14.02
2023-01-06T10:50:43.712Z,14.01
2023-01-06T10:53:13.310Z,14.02
2023-01-06T10:55:47.648Z,14.04
2023-01-06T10:58:25.516Z,14.01
2023-01-06T11:00:59.733Z,14.03
2023-01-06T11:03:34.233Z,14.03
2023-01-06T11:06:16.483Z,14.07
2023-01-06T11:08:47.042Z,14.11
2023-01-06T11:11:27.977Z,14.20
2023-01-06T11:13:59.378Z,14.26
2023-01-06T11:16:30.227Z,14.22
2023-01-06T11:19:02.194Z,14.18
2023-01-06T11:21:41.914Z,14.13
2023-01-06T11:24:20.917Z,14.18
2023-01-06T11:26:53.748Z,14.24
2023-01-06T11:29:31.424Z,14.20
2023-01-06T11:32:04.292Z,14.17
2023-01-06T11:34:35.687Z,14.18
2023-01-06T11:37:04.053Z,14.19
2023-01-06T11:39:35.491Z,14.24
2023-01-06T11:42:10.520Z,14.29
2023-01-06T11:44:41.025Z,14.30
2023-01-06T11:47:16.092Z,14.38
2023-01-06T11:49:49.926Z,14.33
2023-01-06T11:52:23.611Z,14.33
2023-01-06T11:55:00.616Z,14.35
2023-01-06T11:57:37.011Z,14.31
2023-01-06T12:00:21.993Z,14.32
2023-01-06T12:02:54.167Z,14.34
2023-01-06T12:05:30.905Z,14.35
2023-01-06T12:07:59.807Z,14.40
2023-01-06T12:10:36.940Z,14.38
2023-01-06T12:13:05.048Z,14.38
2023-01-06T12:15:36.899Z,14.37
2023-01-06T12:18:12.465Z,14.46
2023-01-06T12:20:48.407Z,14.40
2023-01-06T12:23:25.315Z,14.34
2023-01-06T12:25:57.526Z,14.44
2023-01-06T12:28:31.633Z,14.42
2023-01-06T12:31:17.888Z,14.41
2023-01-06T12:33:55.929Z,14.40
2023-01-06T12:36:34.506Z,14.44
2023-01-06T12:39:05.637Z,14.40
2023-01-06T12:41:39.200Z,14.38
2023-01-06T12:44:19.385Z,14.37
2023-01-06T12:46:56.985Z,14.41
2023-01-06T12:49:34.980Z,14.43
2023-01-06T12:52:08.209Z,14.49
2023-01-06T12:54:36.668Z,14.52
2023-01-06T12:57:23.465Z,14.51
2023-01-06T13:00:05.412Z,14.48
2023-01-06T13:02:54.873Z,14.40
2023-01-06T13:05:32.421Z,14.38
2023-01-06T13:08:17.040Z,14.42
2023-01-06T13:10:50.031Z,14.44
2023-01-06T13:13:41.038Z,14.40
2023-01-06T13:16:19.134Z,14.39
2023-01-06T13:19:14.708Z,14.36
2023-01-06T13:21:45.639Z,14.35
2023-01-06T13:24:33.751Z,14.34
2023-01-06T13:27:25.932Z,14.32
2023-01-06T13:30:08.834Z,14.30
2023-01-06T13:33:04.532Z,14.31
2023-01-06T13:36:03.867Z,14.38
2023-01-06T13:38:58.038Z,14.31
2023-01-06T13:41:32.711Z,14.23
2023-01-06T13:44:03.879Z,14.27
2023-01-06T13:46:35.999Z,14.29
2023-01-06T13:49:06.634Z,14.31
2023-01-06T13:51:38.960Z,14.28
2023-01-06T13:54:07.111Z,14.27
2023-01-06T13:56:39.028Z,14.27
2023-01-06T13:59:25.259Z,14.12
2023-01-06T14:01:55.019Z,14.05
2023-01-06T14:04:46.470Z,14.06
2023-01-06T14:07:16.555Z,14.04
2023-01-06T14:09:50.467Z,13.96
2023-01-06T14:12:23.298Z,13.90
2023-01-06T14:14:59.629Z,13.88
2023-01-06T14:17:38.089Z,13.87
2023-01-06T14:20:08.371Z,13.82
2023-01-06T14:22:36.925Z,13.75
2023-01-06T14:25:08.993Z,13.76
2023-01-06T14:28:23.430Z,13.67
2023-01-06T14:30:53.184Z,13.64
2023-01-06T14:33:31.582Z,13.56
2023-01-06T14:36:05.161Z,13.52
2023-01-06T14:38:42.729Z,13.46
2023-01-06T14:41:21.855Z,13.40
2023-01-06T14:43:56.813Z,13.35
2023-01-06T14:46:30.307Z,13.25
2023-01-06T14:49:02.426Z,13.19
2023-01-06T14:51:33.109Z,13.14
2023-01-06T14:54:05.115Z,13.05
2023-01-06T14:56:35.384Z,13.00
2023-01-06T14:59:06.926Z,12.93
2023-01-06T15:01:36.892Z,12.84
2023-01-06T15:04:06.303Z,12.78
2023-01-06T15:06:34.485Z,12.69
2023-01-06T15:09:14.000Z,12.59
2023-01-06T15:11:43.680Z,12.55
2023-01-06T15:14:33.538Z,12.52
2023-01-06T15:17:05.001Z,12.45
2023-01-06T15:19:34.088Z,12.47
2023-01-06T15:22:08.128Z,12.50
2023-01-06T15:24:39.583Z,12.54
2023-01-06T15:27:10.169Z,12.44
2023-01-06T15:29:39.737Z,12.33
2023-01-06T15:32:14.185Z,12.22
2023-01-06T15:34:47.202Z,12.11
2023-01-06T15:37:20.414Z,11.97
2023-01-06T15:39:49.884Z,11.89
2023-01-06T15:42:26.924Z,11.85
2023-01-06T15:44:58.279Z,11.83
2023-01-06T15:47:33.483Z,11.83
2023-01-06T15:50:04.367Z,11.76
2023-01-06T15:52:35.552Z,11.66
2023-01-06T15:55:06.896Z,11.58
2023-01-06T15:57:38.298Z,11.52
2023-01-06T16:00:19.688Z,11.45
2023-01-06T16:02:49.371Z,11.32
2023-01-06T16:05:35.680Z,11.27
2023-01-06T16:08:05.950Z,11.11
2023-01-06T16:10:37.068Z,11.11
2023-01-06T16:13:15.346Z,11.01
2023-01-06T16:15:52.132Z,10.94
2023-01-06T16:18:28.616Z,10.80
2023-01-06T16:20:57.465Z,10.73
2023-01-06T16:23:30.862Z,10.69
2023-01-06T16:26:15.472Z,10.74
2023-01-06T16:28:48.192Z,10.67
2023-01-06T16:31:31.020Z,10.58
2023-01-06T16:34:17.614Z,10.55
2023-01-06T16:36:45.696Z,10.54
2023-01-06T16:39:13.812Z,10.44
2023-01-06T16:42:03.240Z,10.45
2023-01-06T16:44:34.375Z,10.48
2023-01-06T16:47:03.888Z,10.50
2023-01-06T16:49:32.165Z,10.51
2023-01-06T16:52:01.028Z,10.52
2023-01-06T16:54:31.113Z,10.49
2023-01-06T16:56:59.338Z,10.44
2023-01-06T16:59:33.448Z,10.47
2023-01-06T17:02:11.331Z,10.52
2023-01-06T17:04:41.072Z,10.56
2023-01-06T17:07:14.480Z,10.57
2023-01-06T17:09:43.103Z,10.64
2023-01-06T17:12:35.138Z,10.65
2023-01-06T17:15:03.982Z,10.64
2023-01-06T17:17:33.553Z,10.61
2023-01-06T17:20:02.543Z,10.63
2023-01-06T17:22:32.482Z,10.66
2023-01-06T17:25:10.699Z,10.64
2023-01-06T17:27:38.908Z,10.56
2023-01-06T17:30:15.707Z,10.55
2023-01-06T17:32:46.718Z,10.54
2023-01-06T17:35:27.147Z,10.47
2023-01-06T17:37:55.840Z,10.39
2023-01-06T17:40:29.646Z,10.38
2023-01-06T17:43:04.326Z,10.35
2023-01-06T17:45:32.394Z,10.36
2023-01-06T17:51:52.122Z,10.25
2023-01-06T17:54:40.273Z,10.27
2023-01-06T17:57:18.837Z,10.21
2023-01-06T17:59:47.413Z,10.16
2023-01-06T18:02:35.966Z,10.14
2023-01-06T18:05:34.592Z,10.13
2023-01-06T18:08:15.030Z,10.08
2023-01-06T18:10:45.433Z,10.02
2023-01-06T18:13:16.948Z,9.99
2023-01-06T18:15:46.958Z,9.98
2023-01-06T18:18:21.348Z,9.93
2023-01-06T18:20:54.888Z,9.93
2023-01-06T18:23:26.990Z,9.98
2023-01-06T18:26:00.127Z,9.97
2023-01-06T18:28:28.602Z,10.02
2023-01-06T18:31:00.967Z,10.05
2023-01-06T18:33:30.171Z,10.09
2023-01-06T18:35:58.434Z,10.11
2023-01-06T18:38:31.186Z,10.08
2023-01-06T18:40:59.363Z,10.04
2023-01-06T18:43:30.836Z,10.02
2023-01-06T18:46:03.252Z,9.99
2023-01-06T18:48:33.572Z,9.95
2023-01-06T18:51:03.271Z,9.93
2023-01-06T18:53:38.164Z,9.87
2023-01-06T18:56:15.701Z,9.81
2023-01-06T18:58:47.692Z,9.83
2023-01-06T19:01:20.842Z,9.76
2023-01-06T19:03:59.068Z,9.55
2023-01-06T19:06:40.284Z,9.57
2023-01-06T19:09:19.245Z,9.50
2023-01-06T19:11:48.386Z,9.41
2023-01-06T19:14:19.576Z,9.60
2023-01-06T19:16:56.716Z,9.63
2023-01-06T19:19:29.065Z,9.67
2023-01-06T19:22:14.781Z,9.68
2023-01-06T19:24:49.313Z,9.64
2023-01-06T19:27:42.436Z,9.55
2023-01-06T19:30:39.005Z,9.65
2023-01-06T19:33:34.965Z,9.74
2023-01-06T19:36:39.416Z,9.76
2023-01-06T19:39:34.429Z,9.78
2023-01-06T19:42:18.072Z,9.81
2023-01-06T19:44:49.625Z,9.87
2023-01-06T19:47:21.030Z,9.85
2023-01-06T19:49:56.503Z,9.86
2023-01-06T19:52:33.228Z,9.86
2023-01-06T19:55:16.411Z,9.82
2023-01-06T19:57:49.517Z,9.79
2023-01-06T20:00:46.619Z,9.68
2023-01-06T20:03:28.038Z,9.64
2023-01-06T20:05:56.210Z,9.57
2023-01-06T20:08:24.366Z,9.49
2023-01-06T20:10:52.504Z,9.40
2023-01-06T20:13:22.269Z,9.25
2023-01-06T20:15:50.483Z,9.11
2023-01-06T20:18:18.612Z,9.02
2023-01-06T20:20:46.870Z,8.88
2023-01-06T20:23:15.977Z,8.85
2023-01-06T20:25:44.930Z,8.78
2023-01-06T20:28:13.211Z,8.68
2023-01-06T20:30:43.759Z,8.50
2023-01-06T20:33:13.294Z,8.38
2023-01-06T20:35:41.350Z,8.32
2023-01-06T20:38:09.736Z,8.29
2023-01-06T20:40:45.770Z,8.26
2023-01-06T20:43:14.912Z,8.26
2023-01-06T20:45:44.488Z,8.29
2023-01-06T20:48:12.664Z,8.27
2023-01-06T20:50:42.798Z,8.37
2023-01-06T20:53:11.123Z,8.42
2023-01-06T20:55:39.707Z,8.41
2023-01-06T20:58:08.004Z,8.40
2023-01-06T21:00:36.162Z,8.42
2023-01-06T21:03:05.783Z,8.46
2023-01-06T21:05:34.788Z,8.45
2023-01-06T21:08:02.977Z,8.63
2023-01-06T21:10:31.176Z,8.65
2023-01-06T21:12:59.481Z,8.76
2023-01-06T21:15:27.657Z,8.76
2023-01-06T21:17:55.977Z,8.86
2023-01-06T21:20:25.698Z,8.88
2023-01-06T21:22:54.031Z,8.84
2023-01-06T21:25:22.198Z,8.82
2023-01-06T21:27:51.472Z,8.78
2023-01-06T21:30:20.081Z,8.81
2023-01-06T21:32:49.369Z,8.85
2023-01-06T21:35:17.812Z,8.86
2023-01-06T21:37:47.330Z,8.87
2023-01-06T21:40:16.225Z,8.87
2023-01-06T21:43:01.650Z,8.90
2023-01-06T21:45:29.834Z,8.91
2023-01-06T21:47:58.206Z,8.87
2023-01-06T21:50:27.063Z,8.78
2023-01-06T21:52:56.802Z,8.70
2023-01-06T21:55:26.801Z,8.66
2023-01-06T21:57:54.958Z,8.60
2023-01-06T22:00:23.047Z,8.54
2023-01-06T22:02:54.989Z,8.52
2023-01-06T22:05:23.872Z,8.45
2023-01-06T22:07:54.159Z,8.40
2023-01-06T22:10:25.893Z,8.36
2023-01-06T22:12:56.673Z,8.35
2023-01-06T22:15:25.132Z,8.26
2023-01-06T22:17:58.524Z,8.32
2023-01-06T22:20:27.300Z,8.26
2023-01-06T22:22:55.595Z,8.28
2023-01-06T22:25:25.491Z,8.21
2023-01-06T22:27:53.579Z,8.24
2023-01-06T22:30:21.691Z,8.17
2023-01-06T22:32:50.510Z,8.12
2023-01-06T22:35:19.243Z,8.06
2023-01-06T22:37:47.351Z,8.17
2023-01-06T22:40:16.050Z,8.23
2023-01-06T22:42:45.598Z,8.34
2023-01-06T22:45:14.387Z,8.29
2023-01-06T22:47:42.520Z,8.31
2023-01-06T22:50:11.577Z,8.29
2023-01-06T22:52:39.778Z,8.27
2023-01-06T22:55:09.271Z,8.23
2023-01-06T22:57:37.710Z,8.26
2023-01-06T23:00:13.983Z,8.23
2023-01-06T23:02:42.182Z,8.21
2023-01-06T23:05:11.705Z,8.25
2023-01-06T23:07:40.221Z,8.22
2023-01-06T23:10:09.766Z,8.20
2023-01-06T23:12:38.758Z,8.16
2023-01-06T23:15:09.875Z,8.13
2023-01-06T23:17:38.318Z,8.13
2023-01-06T23:20:07.430Z,8.13
2023-01-06T23:22:35.474Z,8.08
2023-01-06T23:25:03.594Z,8.04
2023-01-06T23:27:31.793Z,8.03
2023-01-06T23:29:59.880Z,7.98
2023-01-06T23:32:29.471Z,7.94
2023-01-06T23:34:57.483Z,7.92
2023-01-06T23:37:26.561Z,7.90
2023-01-06T23:39:55.666Z,7.88
2023-01-06T23:42:23.762Z,7.82
2023-01-06T23:44:51.904Z,7.78
2023-01-06T23:47:19.985Z,7.72
2023-01-06T23:49:49.586Z,7.67
2023-01-06T23:52:23.342Z,7.64
2023-01-06T23:54:51.460Z,7.56
2023-01-06T23:57:19.550Z,7.48
2023-01-06T23:59:47.638Z,7.40
